ADDS TAF Board (Experimental) INFO Settings
IDs: Format: Expanded Condensed

KDFW - Dallas-Ft Worth Intl, TX, US

Issued at 1130 UTC 05 May 2016
Updated at: 1420 UTC 05 May 2016
Time1353Z 05/15Z 05/16Z 05/17Z 05/18Z 05/19Z 05/20Z 05/21Z 05/22Z 05/23Z 06/00Z 06/01Z 06/02Z 06/03Z
Type OBS PRVL PRVL PRVL PRVL PRVL PRVL PRVL PRVL PRVL PRVL PRVL PRVL PRVL
VIS 10 >6 >6 >6 >6 >6 >6 >6 >6 >6 >6 >6 >6 >6
CIG -- -- -- -- -- -- -- -- -- -- -- -- -- --
Cover CLR SKC SKC SKC SKC SKC SKC SKC SKC SKC SKC SKC SKC SKC
FltCat VFR VFR VFR VFR VFR VFR VFR VFR VFR VFR VFR VFR VFR VFR
WX -- -- -- -- -- -- -- -- -- -- -- -- -- --
WDir 20 10 10 10 10 10 10 10 10 10 10 10 10 70
WSpd 4 7 7 7 7 7 7 7 7 7 7 7 7 4
WGst -- -- -- -- -- -- -- -- -- -- -- -- -- --
R13/31
XWnd 4 6 6 6 6 6 6 6 6 6 6 6 6 4
HWnd -2 -4 -4 -4 -4 -4 -4 -4 -4 -4 -4 -4 -4 2
R17/35
XWnd 1 1 1 1 1 1 1 1 1 1 1 1 1 4
HWnd -4 -7 -7 -7 -7 -7 -7 -7 -7 -7 -7 -7 -7 -1
R18/36
XWnd 1 1 1 1 1 1 1 1 1 1 1 1 1 4
HWnd -4 -7 -7 -7 -7 -7 -7 -7 -7 -7 -7 -7 -7 -1

NOTE: TEMPO conditions in [brackets]. Keep in mind TEMPO conditions might be better (lower impact) than prevailing conditions.

Raw TAF
KDFW 051130Z 0512/0618 01007KT P6SM SKC
  FM060300 07004KT P6SM SKC
  FM061300 12007KT P6SM FEW250


Raw METAR
KDFW 051353Z 02004KT 10SM CLR 21/11 A3009 RMK AO2 SLP181 T02060111
KDFW 051253Z 35006KT 10SM CLR 17/13 A3007 RMK AO2 SLP178 T01720128
KDFW 051153Z 33003KT 10SM CLR 14/10 A3006 RMK AO2 SLP173 T01440100 10189 20139 51016

METAR Board
Radar Display
Forecast Discussion

TAF Board Legend

Potential Impact
Threat None Slight Moderate High
Visibility (sm) ≥5.1 5.1>X≥3 3>X≥1 <1
Ceiling (100 ft) ≥30.1 30.1>X≥10 10>X≥5 <5
Wind Speed (kt) <10 10≤X<20 20≤X<30 ≥30
Wind Gust (kt) <15 15≤X<25 25≤X<35 ≥35
Weather No Wx Reported VCTS,-TS,-FZRA,SN TS,FZRA +TS,+FZRA,+SN